Time;durP1;ratioP1;P1;durP2;ratioP2;P2;SDS_P1;SDS_P2;PMS_P1;PMS_P2;Temp;Humidity;BMP_temperature;BMP_pressure;BME280_temperature;BME280_humidity;BME280_pressure;Samples;Min_cycle;Max_cycle;Signal;HPM_P1;HPM_P2
2022/12/15 00:41:00;;;;;;;25.90;12.90;;;7.90;73.40;;;;;;6252089;28;20045;-77
2022/12/15 00:44:01;;;;;;;26.10;13.07;;;7.90;73.40;;;;;;6251194;28;20060;-77
2022/12/15 00:47:03;;;;;;;34.58;14.25;;;7.90;73.50;;;;;;6252855;28;20041;-77
2022/12/15 01:20:19;;;;;;;21.40;9.98;;;7.60;73.40;;;;;;6240800;28;20430;-77
2022/12/15 01:23:19;;;;;;;23.20;9.77;;;7.60;73.60;;;;;;6240573;28;20124;-77
2022/12/15 01:26:20;;;;;;;47.60;10.65;;;7.60;73.50;;;;;;6240299;28;20094;-77
2022/12/15 01:29:22;;;;;;;28.77;9.55;;;7.60;73.50;;;;;;6237037;28;20048;-79
2022/12/15 01:32:23;;;;;;;20.42;9.07;;;7.60;73.50;;;;;;6242251;28;20045;-77
2022/12/15 01:35:26;;;;;;;38.17;11.05;;;7.60;73.50;;;;;;6216294;28;20044;-78
2022/12/15 01:38:27;;;;;;;34.55;11.75;;;7.60;73.50;;;;;;6199309;28;20037;-77
2022/12/15 01:41:28;;;;;;;43.65;11.48;;;7.60;73.60;;;;;;6193657;28;20042;-78
2022/12/15 01:44:29;;;;;;;32.17;10.68;;;7.50;73.50;;;;;;6216280;28;20041;-78
2022/12/15 01:47:30;;;;;;;33.88;10.48;;;7.50;73.50;;;;;;6219173;28;20042;-78
2022/12/15 01:50:39;;;;;;;27.67;9.77;;;7.50;73.70;;;;;;6217319;28;20434;-78
2022/12/15 01:53:57;;;;;;;31.05;10.32;;;7.50;73.70;;;;;;6213549;28;20100;-78
2022/12/15 01:57:12;;;;;;;27.25;10.25;;;7.50;73.70;;;;;;6258047;28;20458;-77
2022/12/15 02:00:14;;;;;;;26.98;10.63;;;7.50;73.70;;;;;;6257930;28;20071;-77
2022/12/15 02:03:15;;;;;;;77.40;11.73;;;7.40;73.70;;;;;;6244275;28;20088;-77
2022/12/15 02:06:20;;;;;;;36.17;11.55;;;7.50;73.90;;;;;;6242756;28;20053;-77
2022/12/15 02:09:24;;;;;;;64.43;9.80;;;7.50;74.10;;;;;;6241026;28;20029;-80
2022/12/15 02:12:51;;;;;;;25.63;10.98;;;7.50;73.90;;;;;;6243232;28;20371;-77
2022/12/15 02:16:25;;;;;;;31.00;9.98;;;7.50;73.70;;;;;;6227353;28;20052;-77
2022/12/15 02:19:35;;;;;;;20.00;9.48;;;7.40;73.80;;;;;;6253420;28;20061;-77
2022/12/15 02:22:55;;;;;;;47.00;11.13;;;7.40;73.80;;;;;;6238916;28;20045;-77
2022/12/15 02:26:16;;;;;;;26.75;8.73;;;7.40;73.90;;;;;;6237286;28;20488;-77
2022/12/15 02:29:36;;;;;;;19.80;9.23;;;7.40;73.90;;;;;;6214035;28;20053;-76
2022/12/15 02:32:46;;;;;;;22.35;9.55;;;7.40;74.00;;;;;;6233574;28;20084;-77
2022/12/15 02:36:13;;;;;;;19.33;9.00;;;7.40;74.10;;;;;;6215372;28;20037;-77
2022/12/15 02:39:16;;;;;;;29.15;9.80;;;7.40;74.00;;;;;;6246431;28;20056;-77
2022/12/15 02:42:17;;;;;;;35.22;10.10;;;7.40;74.60;;;;;;6263539;28;20041;-77
2022/12/15 02:45:29;;;;;;;19.15;9.10;;;7.40;73.80;;;;;;6246956;28;20039;-77
2022/12/15 02:48:43;;;;;;;48.47;10.73;;;7.40;73.60;;;;;;6263636;28;20036;-77
2022/12/15 02:52:28;;;;;;;25.42;9.38;;;7.40;73.60;;;;;;6231017;28;20044;-77
2022/12/15 02:55:53;;;;;;;52.97;9.68;;;7.40;73.60;;;;;;6242890;28;20370;-77
2022/12/15 02:59:03;;;;;;;21.83;9.23;;;7.30;73.70;;;;;;6238216;28;20091;-77
2022/12/15 03:02:07;;;;;;;24.20;10.50;;;7.30;73.70;;;;;;6255171;28;20033;-77
2022/12/15 03:05:09;;;;;;;42.08;8.18;;;7.30;73.70;;;;;;6247484;28;20041;-78
2022/12/15 03:08:09;;;;;;;25.30;10.43;;;7.30;73.60;;;;;;6236239;28;20545;-77
2022/12/15 03:11:10;;;;;;;32.85;11.43;;;7.20;73.50;;;;;;6257916;28;20060;-77
2022/12/15 03:14:11;;;;;;;22.92;9.35;;;7.10;73.60;;;;;;6261377;28;20036;-77
2022/12/15 03:17:12;;;;;;;19.88;9.07;;;7.20;73.70;;;;;;6217015;28;20125;-77
2022/12/15 03:20:13;;;;;;;21.38;9.20;;;7.20;73.80;;;;;;6213340;28;20044;-77
2022/12/15 03:23:14;;;;;;;38.05;10.05;;;7.10;73.50;;;;;;6237115;28;20393;-77
2022/12/15 03:26:15;;;;;;;27.58;8.90;;;7.10;73.40;;;;;;6242202;28;20116;-77
2022/12/15 03:29:17;;;;;;;45.50;8.63;;;7.10;73.70;;;;;;6240299;28;20051;-77
2022/12/15 03:32:17;;;;;;;27.25;9.50;;;7.10;74.20;;;;;;6236410;28;20038;-77
2022/12/15 03:35:18;;;;;;;16.85;8.73;;;7.10;73.80;;;;;;6214705;28;20049;-78
2022/12/15 03:38:19;;;;;;;19.80;8.95;;;7.10;73.80;;;;;;6216334;28;20340;-77
2022/12/15 03:41:20;;;;;;;19.42;8.25;;;7.10;73.80;;;;;;6240715;28;20396;-77
2022/12/15 03:44:21;;;;;;;13.98;7.28;;;7.10;73.60;;;;;;6240575;28;20041;-76
2022/12/15 03:47:22;;;;;;;15.27;7.95;;;7.10;73.40;;;;;;6260941;28;20043;-76
2022/12/15 03:50:25;;;;;;;18.70;8.27;;;7.00;73.30;;;;;;6243901;28;20060;-76
2022/12/15 03:53:26;;;;;;;19.73;8.20;;;7.00;73.40;;;;;;6246127;28;20068;-77
2022/12/15 03:56:27;;;;;;;17.17;7.97;;;6.90;73.30;;;;;;6244744;28;20041;-77
2022/12/15 03:59:28;;;;;;;16.55;7.47;;;6.90;73.40;;;;;;6244575;28;20076;-77
2022/12/15 04:02:30;;;;;;;16.67;7.20;;;6.90;73.50;;;;;;6243132;28;20495;-77
2022/12/15 04:05:33;;;;;;;18.27;6.15;;;6.90;73.50;;;;;;6243496;28;20033;-77
2022/12/15 04:08:34;;;;;;;12.70;5.35;;;6.90;73.60;;;;;;6225123;28;20454;-77
2022/12/15 04:11:35;;;;;;;17.73;8.10;;;6.90;73.50;;;;;;6243427;28;20041;-77
2022/12/15 04:14:41;;;;;;;20.75;8.57;;;6.90;73.50;;;;;;6241916;28;20041;-78
2022/12/15 04:17:42;;;;;;;23.30;6.88;;;6.80;73.60;;;;;;6250689;28;20107;-78
2022/12/15 04:20:43;;;;;;;18.95;7.80;;;6.80;73.70;;;;;;6260862;28;20486;-78
2022/12/15 05:33:42;;;;;;;32.60;7.43;;;7.20;73.70;;;;;;6241133;28;20120;-78
2022/12/15 05:36:44;;;;;;;18.15;7.25;;;7.20;73.90;;;;;;6219529;28;20068;-78
2022/12/15 05:39:45;;;;;;;20.10;7.85;;;7.20;73.80;;;;;;6236184;28;20478;-77
2022/12/15 05:42:46;;;;;;;24.30;8.77;;;7.30;73.80;;;;;;6217100;28;20438;-77
2022/12/15 05:45:47;;;;;;;37.35;8.82;;;7.30;73.60;;;;;;6218427;28;20096;-78
2022/12/15 05:48:48;;;;;;;23.73;9.43;;;7.30;73.30;;;;;;6220559;28;20046;-77
2022/12/15 05:51:49;;;;;;;29.35;10.77;;;7.30;73.30;;;;;;6202919;28;20038;-77
2022/12/15 05:54:50;;;;;;;30.23;9.60;;;7.20;73.40;;;;;;6218828;28;20066;-78
2022/12/15 05:57:52;;;;;;;26.25;8.98;;;7.20;73.90;;;;;;6217108;28;20366;-77
2022/12/15 06:00:53;;;;;;;26.13;10.15;;;7.20;73.70;;;;;;6216819;28;20042;-77
2022/12/15 06:03:56;;;;;;;35.85;10.05;;;7.20;73.50;;;;;;6218743;28;20053;-77
2022/12/15 06:06:58;;;;;;;24.40;9.32;;;7.10;73.50;;;;;;6224089;28;20121;-77
2022/12/15 06:09:59;;;;;;;36.95;9.70;;;7.10;73.40;;;;;;6232163;28;20110;-78
2022/12/15 06:13:01;;;;;;;23.70;7.95;;;7.10;73.30;;;;;;6233137;28;20030;-77
2022/12/15 06:16:09;;;;;;;28.10;7.90;;;7.00;73.20;;;;;;6218408;28;20508;-77
2022/12/15 06:19:09;;;;;;;46.55;8.98;;;6.90;73.10;;;;;;6243588;28;20172;-76
2022/12/15 06:22:11;;;;;;;24.38;9.95;;;6.80;73.30;;;;;;6259988;28;20042;-77
2022/12/15 06:25:12;;;;;;;19.50;8.27;;;6.80;73.60;;;;;;6243699;28;20045;-76
2022/12/15 06:28:12;;;;;;;37.10;9.88;;;6.80;73.60;;;;;;6243726;28;20037;-77
2022/12/15 06:31:14;;;;;;;19.20;9.23;;;6.80;73.80;;;;;;6242432;28;20122;-78
2022/12/15 06:34:16;;;;;;;19.25;8.43;;;6.80;74.00;;;;;;6246706;28;20065;-76
2022/12/15 06:37:18;;;;;;;19.25;9.13;;;6.80;74.00;;;;;;6259171;28;20029;-79
2022/12/15 06:40:19;;;;;;;19.55;8.70;;;6.90;74.10;;;;;;6244278;28;20039;-77
2022/12/15 06:43:20;;;;;;;15.45;7.88;;;6.90;74.00;;;;;;6241617;28;20120;-77
2022/12/15 06:46:22;;;;;;;19.20;7.20;;;6.90;73.90;;;;;;6259850;28;20040;-76
2022/12/15 06:49:23;;;;;;;21.35;8.80;;;6.90;73.70;;;;;;6244985;28;20117;-76
2022/12/15 06:52:23;;;;;;;17.95;7.70;;;7.00;73.90;;;;;;6243104;28;20037;-77
2022/12/15 06:55:24;;;;;;;17.30;7.15;;;7.00;73.60;;;;;;6242008;28;20038;-76
2022/12/15 06:58:26;;;;;;;15.57;5.82;;;6.90;73.60;;;;;;6257392;28;20060;-76
2022/12/15 07:01:27;;;;;;;17.23;7.38;;;6.90;73.60;;;;;;6242268;28;20029;-78
2022/12/15 07:04:32;;;;;;;15.07;5.82;;;6.90;73.50;;;;;;6256794;28;20137;-77
2022/12/15 07:07:33;;;;;;;18.23;6.43;;;6.90;73.70;;;;;;6224612;28;20048;-78
2022/12/15 07:10:36;;;;;;;16.42;6.28;;;6.90;73.80;;;;;;6242198;28;20379;-80
2022/12/15 07:13:37;;;;;;;12.30;6.55;;;7.00;73.70;;;;;;6243331;28;20091;-77
2022/12/15 07:16:39;;;;;;;14.27;6.30;;;6.90;73.50;;;;;;6234177;28;20146;-78
2022/12/15 07:19:40;;;;;;;14.40;5.45;;;6.90;73.60;;;;;;6243024;28;20392;-78
2022/12/15 07:22:42;;;;;;;20.95;7.53;;;6.90;73.70;;;;;;6264255;28;20467;-78
2022/12/15 07:25:42;;;;;;;14.95;6.32;;;6.90;73.70;;;;;;6248621;28;20362;-79
2022/12/15 07:28:43;;;;;;;14.77;6.97;;;6.90;73.80;;;;;;6263838;28;20038;-78
2022/12/15 07:31:45;;;;;;;17.85;8.02;;;6.90;73.80;;;;;;6264162;28;20026;-78
2022/12/15 07:34:46;;;;;;;14.80;7.15;;;6.80;73.70;;;;;;6239305;28;20046;-77
2022/12/15 07:37:47;;;;;;;17.15;7.90;;;6.90;74.10;;;;;;6223251;28;20049;-77
2022/12/15 07:40:49;;;;;;;16.63;6.60;;;6.90;74.10;;;;;;6206508;28;20045;-77
2022/12/15 07:43:50;;;;;;;14.70;7.15;;;6.90;74.10;;;;;;6248116;28;20052;-78
2022/12/15 07:46:51;;;;;;;17.52;7.40;;;7.00;74.10;;;;;;6246112;28;20125;-78
2022/12/15 07:49:53;;;;;;;15.10;7.60;;;7.00;74.00;;;;;;6205771;28;20038;-77
2022/12/15 07:52:55;;;;;;;15.30;5.93;;;7.10;73.90;;;;;;6220024;28;20044;-78
2022/12/15 07:55:58;;;;;;;14.43;6.65;;;7.00;73.90;;;;;;6221491;28;20514;-77
2022/12/15 07:58:59;;;;;;;18.08;6.88;;;7.10;74.10;;;;;;6239065;28;20038;-78
2022/12/15 08:02:00;;;;;;;27.23;7.40;;;7.10;74.10;;;;;;6245247;28;20057;-78
2022/12/15 08:05:01;;;;;;;15.27;6.53;;;7.20;74.10;;;;;;6247249;28;20105;-78
2022/12/15 08:08:02;;;;;;;18.90;7.60;;;7.20;73.90;;;;;;6249104;28;20486;-77
2022/12/15 08:11:07;;;;;;;13.55;6.18;;;7.20;73.90;;;;;;6205891;28;20050;-77
2022/12/15 08:14:08;;;;;;;16.08;6.70;;;7.30;73.90;;;;;;6236063;28;20053;-76
2022/12/15 08:17:09;;;;;;;11.88;6.10;;;7.30;73.70;;;;;;6223326;28;20054;-78
2022/12/15 08:20:10;;;;;;;17.40;6.22;;;7.40;73.50;;;;;;6221884;28;20048;-78
2022/12/15 08:23:11;;;;;;;10.82;5.47;;;7.40;73.50;;;;;;6229592;28;20076;-76
2022/12/15 08:26:15;;;;;;;11.55;5.13;;;7.40;73.40;;;;;;6224604;28;20038;-77
2022/12/15 08:29:16;;;;;;;9.55;5.32;;;7.40;73.40;;;;;;6229748;28;20176;-77
2022/12/15 08:32:17;;;;;;;14.25;5.47;;;7.40;73.60;;;;;;6222223;28;20044;-77
2022/12/15 08:35:18;;;;;;;18.60;6.38;;;7.50;73.60;;;;;;6221900;28;20033;-76
2022/12/15 08:38:20;;;;;;;14.43;6.88;;;7.60;73.70;;;;;;6221425;28;20038;-77
2022/12/15 08:41:24;;;;;;;17.83;7.85;;;7.60;73.50;;;;;;6237345;28;20355;-78
2022/12/15 08:44:25;;;;;;;21.55;8.48;;;7.60;73.20;;;;;;6220570;28;20034;-78
2022/12/15 08:47:26;;;;;;;32.05;8.60;;;7.60;72.40;;;;;;6244239;28;20060;-77
2022/12/15 08:50:27;;;;;;;31.73;9.18;;;7.60;72.90;;;;;;6219282;28;20087;-78
2022/12/15 08:53:28;;;;;;;32.95;10.18;;;7.60;73.10;;;;;;6225975;28;20037;-77
2022/12/15 08:56:29;;;;;;;24.35;10.45;;;7.60;73.30;;;;;;6235840;28;20037;-78
2022/12/15 08:59:30;;;;;;;26.30;10.30;;;7.70;73.30;;;;;;6243851;28;20033;-78
2022/12/15 09:02:31;;;;;;;25.65;10.20;;;7.80;73.20;;;;;;6246336;28;20363;-78
2022/12/15 09:05:38;;;;;;;26.13;8.48;;;7.90;73.00;;;;;;6244280;28;20033;-79
2022/12/15 09:08:40;;;;;;;21.60;8.93;;;7.90;72.80;;;;;;6240417;28;20022;-78
2022/12/15 09:11:41;;;;;;;22.50;8.82;;;7.90;72.60;;;;;;6221212;28;20030;-80
2022/12/15 09:14:41;;;;;;;20.92;6.85;;;7.90;72.70;;;;;;6198532;28;1295801;-79
2022/12/15 09:17:44;;;;;;;19.58;6.65;;;8.00;72.70;;;;;;6245309;28;20037;-79
2022/12/15 09:20:44;;;;;;;17.90;7.93;;;7.90;72.50;;;;;;6247806;28;20330;-78
2022/12/15 09:23:47;;;;;;;16.60;8.05;;;7.90;72.50;;;;;;6247285;28;20073;-78
2022/12/15 09:26:48;;;;;;;26.20;7.50;;;7.90;72.70;;;;;;6263604;28;20033;-78
2022/12/15 09:29:49;;;;;;;22.33;8.35;;;7.90;72.70;;;;;;6263530;28;20033;-78
2022/12/15 09:32:50;;;;;;;21.83;9.15;;;7.90;72.90;;;;;;6248640;28;20656;-78
2022/12/15 09:35:51;;;;;;;22.10;9.07;;;7.90;72.90;;;;;;6233213;28;20029;-78
2022/12/15 09:38:52;;;;;;;17.88;7.10;;;7.90;73.00;;;;;;6265827;28;20424;-77
2022/12/15 09:41:57;;;;;;;28.65;10.32;;;8.00;73.20;;;;;;6248806;28;20032;-80
2022/12/15 09:45:12;;;;;;;17.98;9.48;;;8.00;73.20;;;;;;6245235;28;20144;-78
2022/12/15 09:48:18;;;;;;;20.75;9.00;;;8.10;73.40;;;;;;6245576;28;20484;-77
2022/12/15 09:51:24;;;;;;;17.83;8.20;;;8.10;73.20;;;;;;6260950;28;20091;-78
2022/12/15 09:54:31;;;;;;;23.70;9.43;;;8.20;73.30;;;;;;6248438;28;20060;-78
2022/12/15 09:57:39;;;;;;;18.47;7.47;;;8.30;73.20;;;;;;6248052;28;20047;-77
2022/12/15 10:00:46;;;;;;;13.90;5.93;;;8.30;73.10;;;;;;6248934;28;20060;-78
2022/12/15 10:04:08;;;;;;;24.57;8.83;;;8.40;73.00;;;;;;6265678;28;20052;-78
2022/12/15 10:07:35;;;;;;;23.45;8.45;;;8.40;72.90;;;;;;6223474;28;20273;-78
2022/12/15 10:10:57;;;;;;;19.00;7.90;;;8.40;72.70;;;;;;6225868;28;20029;-77
2022/12/15 10:14:20;;;;;;;15.32;7.20;;;8.40;72.80;;;;;;6226523;28;20034;-78
2022/12/15 10:17:40;;;;;;;17.92;7.60;;;8.40;72.80;;;;;;6217233;28;20060;-78
2022/12/15 10:20:41;;;;;;;23.85;8.57;;;8.50;72.70;;;;;;6229980;28;20364;-78
2022/12/15 10:23:42;;;;;;;26.85;9.27;;;8.50;72.50;;;;;;6218619;28;20053;-78
2022/12/15 10:26:51;;;;;;;38.17;14.32;;;8.50;72.50;;;;;;6232697;28;20084;-77
2022/12/15 10:30:00;;;;;;;23.63;11.02;;;8.50;72.60;;;;;;6218152;28;20049;-77
2022/12/15 10:33:19;;;;;;;23.15;9.55;;;8.50;72.30;;;;;;6236572;28;20037;-78
2022/12/15 10:36:20;;;;;;;22.17;9.48;;;8.50;72.10;;;;;;6242815;28;20052;-79
2022/12/15 10:39:37;;;;;;;30.30;11.48;;;8.50;72.10;;;;;;6238471;28;20506;-79
2022/12/15 10:42:49;;;;;;;24.73;10.98;;;8.50;72.30;;;;;;6257240;28;20323;-77
2022/12/15 10:46:04;;;;;;;28.67;9.80;;;8.50;72.50;;;;;;6244060;28;20033;-76
2022/12/15 10:49:05;;;;;;;23.63;9.70;;;8.50;72.60;;;;;;6227888;28;20044;-78
2022/12/15 10:52:26;;;;;;;31.20;10.98;;;8.60;72.80;;;;;;6232559;28;20026;-81
2022/12/15 10:55:36;;;;;;;29.13;12.43;;;8.70;72.70;;;;;;6236864;28;20107;-78
2022/12/15 10:59:02;;;;;;;37.80;14.48;;;8.80;72.40;;;;;;6238728;28;20540;-80
2022/12/15 11:02:26;;;;;;;36.00;12.70;;;8.80;72.40;;;;;;6236066;28;20171;-78
2022/12/15 11:05:27;;;;;;;35.00;13.20;;;8.80;72.40;;;;;;6249061;28;20339;-80
2022/12/15 11:08:28;;;;;;;35.92;14.13;;;8.90;72.40;;;;;;6245559;28;20025;-78
2022/12/15 11:14:52;;;;;;;36.20;13.75;;;9.00;72.40;;;;;;6257173;28;20037;-78
2022/12/15 11:18:14;;;;;;;32.05;12.18;;;9.00;72.20;;;;;;6240875;28;20079;-79
2022/12/15 11:21:31;;;;;;;27.58;10.88;;;9.00;72.30;;;;;;6253780;28;20047;-80
2022/12/15 11:24:46;;;;;;;30.70;9.85;;;9.00;72.30;;;;;;6241625;28;20091;-80
2022/12/15 11:27:49;;;;;;;37.45;14.35;;;9.00;72.10;;;;;;6217284;28;20038;-81
2022/12/15 11:30:59;;;;;;;40.90;15.23;;;9.00;72.10;;;;;;6216004;28;20436;-81
2022/12/15 11:34:01;;;;;;;29.63;12.85;;;9.00;72.20;;;;;;6218290;28;20078;-80
2022/12/15 11:37:27;;;;;;;38.03;11.77;;;9.00;72.30;;;;;;6223124;28;20064;-79
2022/12/15 11:40:42;;;;;;;33.05;11.75;;;9.00;72.40;;;;;;6217430;28;20062;-80
2022/12/15 11:43:58;;;;;;;24.70;10.10;;;9.00;72.40;;;;;;6239929;28;20477;-80
2022/12/15 11:47:28;;;;;;;22.15;9.65;;;9.00;72.30;;;;;;6240516;28;20037;-79
2022/12/15 11:50:38;;;;;;;23.30;9.95;;;9.00;72.40;;;;;;6187600;28;20129;-80
2022/12/15 11:53:53;;;;;;;30.35;12.50;;;9.00;72.40;;;;;;6175264;28;20044;-79
2022/12/15 11:57:31;;;;;;;50.42;17.25;;;8.90;72.60;;;;;;6189835;28;20482;-78
2022/12/15 12:00:40;;;;;;;28.58;11.52;;;8.90;72.80;;;;;;6165546;28;20114;-80
2022/12/15 12:03:53;;;;;;;24.08;9.85;;;8.90;72.90;;;;;;6172511;28;20441;-79
2022/12/15 12:06:57;;;;;;;34.90;11.52;;;8.90;72.90;;;;;;6171987;28;20101;-81
2022/12/15 12:10:29;;;;;;;25.75;10.55;;;8.90;73.20;;;;;;6178618;28;20109;-78
2022/12/15 12:13:45;;;;;;;28.17;12.23;;;8.90;73.20;;;;;;6192827;28;20046;-80
2022/12/15 12:16:55;;;;;;;25.85;10.52;;;8.90;73.20;;;;;;6195067;28;20050;-80
2022/12/15 12:20:01;;;;;;;23.75;9.90;;;8.90;73.20;;;;;;6195026;28;20045;-77
2022/12/15 12:23:16;;;;;;;31.92;13.80;;;8.90;73.20;;;;;;6186575;28;20065;-79
2022/12/15 12:26:41;;;;;;;25.58;10.25;;;8.90;73.30;;;;;;6200922;28;20034;-80
2022/12/15 12:29:50;;;;;;;17.10;8.18;;;8.90;73.50;;;;;;6201018;28;20125;-78
2022/12/15 12:33:10;;;;;;;30.73;11.32;;;8.80;73.50;;;;;;6239489;28;20050;-78
2022/12/15 12:36:13;;;;;;;22.52;8.93;;;8.80;73.40;;;;;;6220821;28;20035;-78
2022/12/15 12:39:19;;;;;;;20.15;9.43;;;8.90;73.40;;;;;;6213742;28;20026;-78
2022/12/15 12:42:44;;;;;;;31.10;12.63;;;8.80;73.40;;;;;;6219791;28;20030;-79
2022/12/15 12:46:15;;;;;;;24.60;9.77;;;8.80;73.50;;;;;;6243815;28;20030;-79
2022/12/15 12:49:27;;;;;;;20.45;9.02;;;8.80;73.50;;;;;;6246055;28;20054;-78
2022/12/15 12:52:34;;;;;;;26.00;9.45;;;8.70;73.60;;;;;;6248464;28;20036;-78
2022/12/15 12:55:40;;;;;;;24.60;9.35;;;8.70;73.70;;;;;;6209618;28;20030;-80
2022/12/15 12:58:41;;;;;;;16.25;7.45;;;8.80;73.80;;;;;;6238298;28;20113;-79
2022/12/15 13:01:42;;;;;;;16.92;7.57;;;8.70;73.80;;;;;;6240910;28;20718;-81
2022/12/15 13:04:50;;;;;;;19.23;9.02;;;8.80;73.90;;;;;;6224341;28;20037;-82
2022/12/15 13:07:55;;;;;;;20.27;8.18;;;8.80;73.90;;;;;;6240237;28;20454;-81
2022/12/15 13:11:42;;;;;;;17.73;7.95;;;8.80;74.00;;;;;;6237212;28;20069;-78
2022/12/15 13:14:46;;;;;;;17.48;8.40;;;8.90;74.00;;;;;;6214106;28;20104;-80
2022/12/15 13:17:53;;;;;;;25.17;8.68;;;8.80;73.70;;;;;;6202601;28;20501;-80
2022/12/15 13:20:55;;;;;;;21.25;7.65;;;8.80;73.90;;;;;;6202734;28;20052;-80
2022/12/15 13:23:58;;;;;;;14.48;7.13;;;8.80;74.10;;;;;;6218894;28;20435;-78
2022/12/15 13:27:13;;;;;;;20.67;8.48;;;8.70;74.30;;;;;;6218957;28;20125;-77
2022/12/15 13:30:15;;;;;;;18.73;8.00;;;8.70;74.40;;;;;;6197998;28;20399;-79
2022/12/15 13:33:18;;;;;;;21.88;8.18;;;8.80;74.50;;;;;;6215121;28;20049;-81
2022/12/15 13:36:39;;;;;;;32.30;10.80;;;8.80;74.50;;;;;;6217055;28;20030;-78
2022/12/15 13:39:52;;;;;;;24.75;12.20;;;8.80;74.50;;;;;;6211713;28;20042;-78
2022/12/15 13:42:58;;;;;;;27.80;10.75;;;8.90;74.40;;;;;;6200244;28;20370;-78
2022/12/15 13:46:08;;;;;;;22.30;10.63;;;8.90;74.50;;;;;;6201889;28;20093;-79
2022/12/15 13:49:18;;;;;;;19.88;8.52;;;8.90;74.50;;;;;;6200864;28;20054;-79
2022/12/15 13:52:22;;;;;;;22.02;9.07;;;8.90;74.40;;;;;;6212469;28;20057;-79
2022/12/15 13:55:25;;;;;;;22.50;9.93;;;8.90;74.40;;;;;;6235759;28;20029;-77
2022/12/15 13:58:29;;;;;;;23.38;11.00;;;8.90;74.50;;;;;;6218335;28;20078;-78
2022/12/15 14:01:31;;;;;;;19.35;9.07;;;8.90;74.60;;;;;;6219661;28;20435;-78
2022/12/15 14:04:32;;;;;;;23.20;9.00;;;8.90;74.60;;;;;;6247884;28;20041;-78
2022/12/15 14:07:34;;;;;;;22.13;9.35;;;8.90;74.40;;;;;;6241196;28;20347;-78
2022/12/15 14:10:43;;;;;;;22.25;8.85;;;9.00;74.60;;;;;;6240354;28;20033;-78
2022/12/15 14:13:44;;;;;;;17.33;7.47;;;9.00;74.60;;;;;;6242060;28;20041;-79
2022/12/15 14:16:50;;;;;;;20.48;8.65;;;9.00;74.50;;;;;;6242760;28;20052;-78
2022/12/15 14:19:51;;;;;;;18.55;8.30;;;9.00;74.40;;;;;;6259956;28;20102;-80
2022/12/15 14:22:53;;;;;;;19.40;9.05;;;9.00;74.40;;;;;;6259850;28;20041;-78
2022/12/15 14:25:56;;;;;;;19.48;9.98;;;9.00;74.30;;;;;;6242657;28;20051;-79
2022/12/15 14:29:02;;;;;;;21.15;8.02;;;9.00;74.50;;;;;;6220859;28;20049;-79
2022/12/15 14:32:04;;;;;;;20.35;8.02;;;9.00;74.50;;;;;;6222501;28;20038;-82
2022/12/15 14:35:10;;;;;;;23.90;9.55;;;9.10;74.60;;;;;;6256261;28;20040;-78
2022/12/15 14:38:21;;;;;;;18.92;8.07;;;9.20;74.80;;;;;;6240248;28;20132;-79
2022/12/15 14:41:27;;;;;;;27.45;9.70;;;9.20;74.50;;;;;;6243660;28;20036;-79
2022/12/15 14:44:38;;;;;;;18.83;9.50;;;9.20;74.40;;;;;;6258091;28;20155;-79
2022/12/15 14:47:56;;;;;;;22.27;8.80;;;9.20;74.40;;;;;;6257624;28;20099;-80
2022/12/15 14:51:00;;;;;;;16.03;9.23;;;9.20;74.40;;;;;;6260291;28;20040;-79
2022/12/15 14:54:01;;;;;;;22.92;10.05;;;9.20;74.30;;;;;;6256553;28;20044;-79
2022/12/15 14:57:07;;;;;;;21.23;9.88;;;9.20;74.40;;;;;;6235217;28;20033;-79
2022/12/15 15:00:46;;;;;;;22.60;8.63;;;9.20;74.50;;;;;;6256663;28;20387;-79
2022/12/15 15:04:03;;;;;;;23.13;11.15;;;9.20;74.40;;;;;;6253656;28;20338;-79
2022/12/15 15:07:06;;;;;;;27.25;10.63;;;9.20;74.30;;;;;;6241351;28;20454;-80
2022/12/15 15:10:23;;;;;;;26.92;11.90;;;9.30;74.40;;;;;;6242622;28;20113;-80
2022/12/15 15:13:29;;;;;;;30.33;12.32;;;9.30;74.60;;;;;;6256974;28;20057;-80
2022/12/15 15:16:30;;;;;;;21.80;10.00;;;9.30;74.60;;;;;;6224969;28;20042;-79
2022/12/15 15:19:32;;;;;;;21.50;9.65;;;9.30;74.50;;;;;;6240636;28;20038;-80
2022/12/15 15:22:39;;;;;;;23.55;8.40;;;9.30;74.60;;;;;;6254779;28;20038;-79
2022/12/15 15:26:07;;;;;;;19.23;10.35;;;9.30;74.30;;;;;;6253849;28;20025;-80
2022/12/15 15:29:42;;;;;;;35.28;13.02;;;9.30;74.40;;;;;;6222959;28;20026;-79
2022/12/15 15:32:54;;;;;;;21.48;10.20;;;9.30;74.50;;;;;;6242710;28;20086;-80
2022/12/15 15:35:57;;;;;;;30.00;11.32;;;9.20;74.60;;;;;;6267473;28;20047;-78
2022/12/15 15:39:00;;;;;;;18.75;9.05;;;9.20;74.80;;;;;;6252340;28;20064;-79
2022/12/15 15:42:11;;;;;;;21.10;8.80;;;9.30;74.90;;;;;;6271543;28;20025;-79
2022/12/15 15:45:14;;;;;;;19.33;8.07;;;9.40;74.80;;;;;;6250348;28;20060;-80
2022/12/15 15:48:25;;;;;;;19.50;9.23;;;9.40;74.60;;;;;;6266226;28;20087;-79
2022/12/15 15:51:29;;;;;;;18.10;8.98;;;9.50;74.60;;;;;;6250296;28;20029;-79
2022/12/15 15:54:34;;;;;;;20.10;9.38;;;9.50;74.60;;;;;;6248924;28;20048;-78
2022/12/15 15:57:35;;;;;;;20.95;8.43;;;9.50;74.60;;;;;;6247311;28;20052;-80
2022/12/15 16:00:38;;;;;;;23.35;8.98;;;9.60;74.70;;;;;;6221402;28;20052;-79
2022/12/15 16:03:39;;;;;;;22.92;9.85;;;9.60;74.70;;;;;;6232865;28;20041;-79
2022/12/15 16:06:40;;;;;;;16.52;7.70;;;9.60;74.60;;;;;;6265118;28;20463;-80
2022/12/15 16:09:41;;;;;;;21.75;8.85;;;9.60;74.70;;;;;;6248950;28;20072;-79
2022/12/15 16:12:48;;;;;;;20.25;9.13;;;9.60;74.50;;;;;;6263685;28;20030;-79
2022/12/15 16:15:49;;;;;;;20.75;9.48;;;9.60;74.40;;;;;;6243335;28;20745;-79
2022/12/15 16:18:50;;;;;;;20.38;8.18;;;9.60;74.50;;;;;;6241287;28;20060;-77
2022/12/15 16:21:51;;;;;;;17.30;8.38;;;9.60;74.50;;;;;;6244767;28;20022;-79
2022/12/15 16:24:53;;;;;;;18.80;8.10;;;9.50;74.40;;;;;;6244737;28;20458;-78
2022/12/15 16:27:54;;;;;;;17.48;8.38;;;9.50;74.50;;;;;;6244411;28;20033;-78
2022/12/15 16:31:00;;;;;;;15.95;7.90;;;9.50;74.60;;;;;;6243502;28;20038;-79
2022/12/15 16:34:02;;;;;;;18.60;8.65;;;9.50;74.70;;;;;;6248311;28;20037;-80
2022/12/15 16:37:03;;;;;;;23.98;8.05;;;9.50;74.80;;;;;;6244423;28;20033;-80
2022/12/15 16:40:21;;;;;;;22.30;10.80;;;9.50;74.90;;;;;;6247592;28;20037;-79
2022/12/15 16:43:25;;;;;;;24.48;9.93;;;9.50;75.00;;;;;;6227951;28;20042;-80
2022/12/15 16:46:26;;;;;;;22.58;9.27;;;9.60;74.90;;;;;;6221386;28;20379;-79
2022/12/15 16:49:28;;;;;;;23.13;11.50;;;9.60;75.00;;;;;;6224029;28;20051;-79
2022/12/15 16:52:29;;;;;;;20.75;9.98;;;9.70;74.90;;;;;;6222197;28;20471;-79
2022/12/15 16:55:32;;;;;;;22.52;8.77;;;9.70;74.80;;;;;;6221743;28;20096;-80
2022/12/15 16:58:34;;;;;;;20.27;10.13;;;9.60;74.50;;;;;;6220774;28;20058;-79
2022/12/15 17:01:35;;;;;;;30.35;11.93;;;9.70;74.60;;;;;;6223788;28;20952;-80
2022/12/15 17:04:36;;;;;;;18.63;8.90;;;9.70;74.80;;;;;;6220634;28;20038;-79
2022/12/15 17:07:37;;;;;;;19.65;9.85;;;9.70;74.70;;;;;;6223218;28;20382;-78
2022/12/15 17:10:40;;;;;;;30.50;11.75;;;9.80;74.60;;;;;;6221940;28;20037;-80
2022/12/15 17:13:43;;;;;;;30.45;13.05;;;9.80;74.50;;;;;;6234953;28;20068;-80
2022/12/15 17:16:44;;;;;;;26.38;12.85;;;9.80;74.50;;;;;;6214514;28;20045;-80
2022/12/15 17:19:45;;;;;;;20.70;10.85;;;9.90;74.60;;;;;;6219669;28;20038;-79
2022/12/15 17:23:07;;;;;;;28.80;10.63;;;9.90;74.50;;;;;;6201504;28;20033;-79
2022/12/15 17:26:15;;;;;;;32.08;12.60;;;9.80;74.40;;;;;;6219386;28;20058;-78
2022/12/15 17:29:18;;;;;;;43.13;16.50;;;9.90;74.50;;;;;;6227752;28;20038;-80
2022/12/15 17:32:19;;;;;;;24.85;10.73;;;9.90;74.40;;;;;;6222116;28;20034;-80
2022/12/15 17:35:20;;;;;;;19.33;8.68;;;9.90;74.30;;;;;;6221966;28;20443;-79
2022/12/15 17:38:22;;;;;;;24.17;10.50;;;9.90;74.20;;;;;;6237840;28;20049;-79
2022/12/15 17:41:24;;;;;;;20.75;9.82;;;9.90;74.10;;;;;;6222866;28;20030;-78
2022/12/15 17:44:29;;;;;;;21.30;8.95;;;9.80;74.10;;;;;;6222380;28;20041;-80
2022/12/15 17:47:30;;;;;;;18.98;9.70;;;9.90;74.00;;;;;;6223823;28;20038;-80
2022/12/15 17:50:31;;;;;;;23.17;10.05;;;9.80;74.00;;;;;;6238930;28;20042;-79
2022/12/15 17:53:33;;;;;;;26.27;10.88;;;9.80;74.10;;;;;;6248096;28;20057;-79
2022/12/15 17:56:34;;;;;;;24.63;12.02;;;9.70;74.10;;;;;;6246702;28;20474;-79
2022/12/15 17:59:35;;;;;;;38.90;14.95;;;9.80;74.20;;;;;;6262843;28;20037;-80
2022/12/15 18:02:36;;;;;;;24.60;10.40;;;9.80;74.20;;;;;;6261642;28;20328;-79
2022/12/15 18:05:37;;;;;;;27.88;12.75;;;9.80;74.20;;;;;;6242425;28;20053;-80
2022/12/15 18:08:38;;;;;;;26.27;10.40;;;9.80;74.20;;;;;;6243557;28;20049;-78
2022/12/15 18:11:39;;;;;;;21.95;9.35;;;9.90;74.20;;;;;;6245628;28;20038;-80
2022/12/15 18:14:40;;;;;;;28.55;9.07;;;9.90;74.20;;;;;;6235874;28;20768;-79
2022/12/15 18:17:41;;;;;;;27.98;10.88;;;10.00;74.10;;;;;;6244143;28;20125;-79
2022/12/15 18:20:42;;;;;;;43.05;17.92;;;10.00;73.80;;;;;;6260092;28;20029;-79
2022/12/15 18:23:46;;;;;;;36.92;15.05;;;10.00;73.70;;;;;;6243363;28;20121;-78
2022/12/15 18:26:47;;;;;;;26.15;11.40;;;9.90;73.80;;;;;;6246536;28;20044;-79